Time;durP1;ratioP1;P1;durP2;ratioP2;P2;SDS_P1;SDS_P2;PMS_P1;PMS_P2;Temp;Humidity;BMP_temperature;BMP_pressure;BME280_temperature;BME280_humidity;BME280_pressure;Samples;Min_cycle;Max_cycle;Signal;HPM_P1;HPM_P2
2022/01/24 00:00:16;;;;;;;;;;;;;;;-0.14;100.00;99827.33;1661376;85;24683;-83
2022/01/24 00:02:44;;;;;;;;;;;;;;;0.00;100.00;99817.80;1655937;86;20196;-83
2022/01/24 00:05:12;;;;;;;;;;;;;;;0.07;100.00;99813.48;1655974;86;25080;-83
2022/01/24 00:07:38;;;;;;;;;;;;;;;0.12;100.00;99818.17;1661980;86;23111;-83
2022/01/24 00:10:08;;;;;;;;;;;;;;;0.16;100.00;99817.75;1660038;86;26300;-83
2022/01/24 00:12:43;;;;;;;;;;;;;;;0.11;100.00;99819.50;1659758;86;24405;-83
2022/01/24 00:15:12;;;;;;;;;;;;;;;0.00;100.00;99822.12;1659345;86;20291;-83
2022/01/24 00:17:33;;;;;;;;;;;;;;;-0.16;100.00;99821.32;1660787;86;25273;-83
2022/01/24 00:28:11;;;;;;;;;;;;;;;-0.39;100.00;99830.88;1669435;84;20350;-82
2022/01/24 00:30:37;;;;;;;;;;;;;;;-0.34;100.00;99829.13;1657884;84;25169;-84
2022/01/24 00:33:03;;;;;;;;;;;;;;;-0.28;100.00;99825.69;1658397;85;22091;-83
2022/01/24 00:35:29;;;;;;;;;;;;;;;-0.27;100.00;99826.94;1659292;84;25956;-82
2022/01/24 00:37:59;;;;;;;;;;;;;;;-0.32;100.00;99823.96;1659620;85;24361;-82
2022/01/24 00:40:26;;;;;;;;;;;;;;;-0.53;100.00;99823.19;1657412;85;20204;-83
2022/01/24 00:42:57;;;;;;;;;;;;;;;-0.75;100.00;99823.24;1658736;85;24960;-83
2022/01/24 00:53:38;;;;;;;;;;;;;;;-1.33;100.00;99837.02;1663182;85;20455;-83
2022/01/24 00:55:57;;;;;;;;;;;;;;;-1.16;100.00;99830.59;1662113;85;25103;-83
2022/01/24 00:58:24;;;;;;;;;;;;;;;-1.04;100.00;99818.17;1663556;85;22006;-83
2022/01/24 01:00:50;;;;;;;;;;;;;;;-0.99;100.00;99823.73;1663894;85;25893;-83
2022/01/24 01:03:17;;;;;;;;;;;;;;;-0.95;100.00;99820.72;1667174;85;24421;-83
2022/01/24 01:06:04;;;;;;;;;;;;;;;-0.93;100.00;99826.73;1665496;85;20530;-82
2022/01/24 01:18:59;;;;;;;;;;;;;;;-1.14;100.00;99823.73;1662296;85;20169;-83
2022/01/24 01:21:26;;;;;;;;;;;;;;;-1.37;100.00;99818.63;1664995;85;25003;-83
2022/01/24 01:23:55;;;;;;;;;;;;;;;-1.42;100.00;99808.75;1665320;85;22037;-83
2022/01/24 01:26:28;;;;;;;;;;;;;;;-1.36;100.00;99806.19;1663087;84;26098;-83
2022/01/24 01:28:56;;;;;;;;;;;;;;;-1.34;100.00;99800.64;1662628;85;25188;-83
2022/01/24 01:31:32;;;;;;;;;;;;;;;-1.35;100.00;99796.35;1667295;85;20258;-83
2022/01/24 01:34:00;;;;;;;;;;;;;;;-1.45;100.00;99795.08;1666079;85;24994;-83
2022/01/24 01:36:34;;;;;;;;;;;;;;;-1.48;100.00;99789.53;1665607;84;22658;-83
2022/01/24 01:39:25;;;;;;;;;;;;;;;-1.48;100.00;99794.66;1667050;85;26727;-83
2022/01/24 01:52:47;;;;;;;;;;;;;;;-2.20;100.00;99792.41;1668546;85;25877;-82
2022/01/24 01:55:15;;;;;;;;;;;;;;;-2.18;100.00;99791.97;1666392;85;24464;-82
2022/01/24 01:57:38;;;;;;;;;;;;;;;-2.16;100.00;99789.41;1668855;85;20228;-82
2022/01/24 02:00:05;;;;;;;;;;;;;;;-2.13;100.00;99792.01;1669966;85;24960;-82
2022/01/24 02:02:31;;;;;;;;;;;;;;;-2.09;100.00;99797.56;1667778;85;21960;-82
2022/01/24 02:04:57;;;;;;;;;;;;;;;-2.06;100.00;99792.86;1667955;84;21043;-82
2022/01/24 02:07:23;;;;;;;;;;;;;;;-2.08;100.00;99799.70;1668388;85;24471;-82
2022/01/24 02:09:50;;;;;;;;;;;;;;;-2.20;100.00;99800.10;1667020;85;20217;-82
2022/01/24 02:12:17;;;;;;;;;;;;;;;-2.22;100.00;99800.51;1669051;84;25000;-82
2022/01/24 02:14:53;;;;;;;;;;;;;;;-2.21;100.00;99800.95;1667354;85;22110;-81
2022/01/24 02:17:21;;;;;;;;;;;;;;;-2.23;100.00;99800.08;1666761;85;26082;-82
2022/01/24 02:20:08;;;;;;;;;;;;;;;-2.30;99.95;99800.93;1669954;84;25122;-82
2022/01/24 02:25:01;;;;;;;;;;;;;;;-2.54;99.58;99807.22;1665551;85;25006;-81
2022/01/24 02:27:32;;;;;;;;;;;;;;;-2.89;99.11;99805.75;1668306;84;21974;-81
2022/01/24 02:30:13;;;;;;;;;;;;;;;-2.96;98.84;99806.58;1668734;84;26254;-82
2022/01/24 02:32:24;;;;;;;;;;;;;;;-3.03;98.67;99806.96;1667512;85;24086;-81
2022/01/24 02:34:50;;;;;;;;;;;;;;;-3.25;98.33;99810.64;1669102;85;20269;-82
2022/01/24 02:37:18;;;;;;;;;;;;;;;-3.23;98.23;99821.34;1670498;85;25192;-82
2022/01/24 02:39:56;;;;;;;;;;;;;;;-3.10;98.26;99823.54;1669254;85;22093;-81
2022/01/24 02:53:21;;;;;;;;;;;;;;;-3.19;98.11;99837.56;1669653;85;22109;-82
2022/01/24 02:55:47;;;;;;;;;;;;;;;-3.27;98.08;99841.33;1670235;85;26244;-83
2022/01/24 02:58:15;;;;;;;;;;;;;;;-3.31;98.03;99839.60;1670119;85;24491;-83
2022/01/24 03:00:41;;;;;;;;;;;;;;;-3.20;98.08;99837.98;1668701;85;20185;-83
2022/01/24 03:03:08;;;;;;;;;;;;;;;-3.07;98.18;99838.52;1668545;85;25024;-83
2022/01/24 03:05:34;;;;;;;;;;;;;;;-3.01;98.20;99838.56;1669138;85;22006;-82
2022/01/24 03:08:00;;;;;;;;;;;;;;;-3.00;98.16;99837.69;1671742;85;26669;-83
2022/01/24 03:10:41;;;;;;;;;;;;;;;-3.07;98.08;99829.56;1670141;85;24477;-83
2022/01/24 03:15:42;;;;;;;;;;;;;;;-3.04;98.01;99839.81;1671179;85;25013;-83
2022/01/24 03:18:10;;;;;;;;;;;;;;;-3.15;97.84;99843.13;1670645;85;21882;-83
2022/01/24 03:20:38;;;;;;;;;;;;;;;-3.23;97.73;99848.22;1669115;85;26651;-83
2022/01/24 03:23:05;;;;;;;;;;;;;;;-3.38;97.52;99851.48;1669385;85;24599;-83
2022/01/24 03:25:31;;;;;;;;;;;;;;;-3.45;97.35;99848.45;1669268;84;20515;-83
2022/01/24 03:27:57;;;;;;;;;;;;;;;-3.36;97.34;99848.95;1670793;85;25141;-83
2022/01/24 03:30:24;;;;;;;;;;;;;;;-3.41;97.27;99851.47;1663392;84;22046;-83
2022/01/24 03:32:51;;;;;;;;;;;;;;;-3.50;97.12;99853.09;1660853;85;26085;-82
2022/01/24 03:35:18;;;;;;;;;;;;;;;-3.58;96.97;99850.88;1663916;84;24421;-83
2022/01/24 03:37:44;;;;;;;;;;;;;;;-3.67;96.84;99850.38;1656366;85;20184;-83
2022/01/24 03:40:11;;;;;;;;;;;;;;;-3.62;96.80;99852.56;1655769;85;25215;-82
2022/01/24 03:42:37;;;;;;;;;;;;;;;-3.64;96.75;99854.23;1657224;85;22045;-83
2022/01/24 03:45:06;;;;;;;;;;;;;;;-3.62;96.72;99858.09;1675177;84;26045;-83
2022/01/24 03:50:00;;;;;;;;;;;;;;;-3.98;96.30;99867.09;1648123;86;20251;-83
2022/01/24 03:52:30;;;;;;;;;;;;;;;-4.08;96.06;99866.97;1669347;83;24961;-83
2022/01/24 03:54:55;;;;;;;;;;;;;;;-3.94;96.05;99864.16;1666654;84;21959;-83
2022/01/24 03:57:21;;;;;;;;;;;;;;;-3.89;96.05;99865.93;1673179;83;25984;-83
2022/01/24 03:59:47;;;;;;;;;;;;;;;-4.14;95.76;99866.89;1668893;84;24452;-83
2022/01/24 04:02:14;;;;;;;;;;;;;;;-4.43;95.37;99872.53;1670731;83;20581;-83
2022/01/24 04:04:40;;;;;;;;;;;;;;;-4.55;95.13;99861.28;1671993;83;25035;-83
2022/01/24 04:07:06;;;;;;;;;;;;;;;-4.43;95.13;99866.56;1642197;85;21947;-83
2022/01/24 04:09:34;;;;;;;;;;;;;;;-4.44;95.06;99872.09;1672457;83;26030;-83
2022/01/24 04:12:01;;;;;;;;;;;;;;;-4.30;95.16;99873.52;1638480;85;25137;-83
2022/01/24 04:14:35;;;;;;;;;;;;;;;-4.19;95.24;99863.42;1671301;83;20142;-82
2022/01/24 04:17:19;;;;;;;;;;;;;;;-4.31;95.15;99874.39;1668981;84;25054;-83
2022/01/24 04:22:10;;;;;;;;;;;;;;;-4.51;94.88;99878.36;1668515;83;26021;-84
2022/01/24 04:24:37;;;;;;;;;;;;;;;-4.66;94.72;99865.83;1663856;83;24434;-83
2022/01/24 04:27:04;;;;;;;;;;;;;;;-4.58;94.71;99869.75;1663547;83;20512;-83
2022/01/24 04:29:30;;;;;;;;;;;;;;;-4.65;94.64;99870.53;1667038;83;25023;-83
2022/01/24 04:31:56;;;;;;;;;;;;;;;-4.65;94.58;99882.88;1680868;83;22152;-83
2022/01/24 04:34:23;;;;;;;;;;;;;;;-4.69;94.53;99884.92;1644902;85;26009;-82
2022/01/24 04:36:49;;;;;;;;;;;;;;;-4.85;94.35;99883.41;1677274;84;24424;-83
2022/01/24 04:39:16;;;;;;;;;;;;;;;-4.96;94.16;99884.52;1673861;83;20425;-83
2022/01/24 04:41:46;;;;;;;;;;;;;;;-5.08;93.97;99885.22;1682511;83;25202;-83
2022/01/24 04:47:00;;;;;;;;;;;;;;;-5.17;93.69;99890.57;1665778;84;26057;-83
2022/01/24 04:57:13;;;;;;;;;;;;;;;-4.67;94.24;99890.06;1659734;84;21987;-83
2022/01/24 04:59:41;;;;;;;;;;;;;;;-4.63;94.34;99879.05;1672243;85;26023;-82
2022/01/24 05:02:07;;;;;;;;;;;;;;;-4.55;94.43;99876.61;1670061;84;24519;-82
2022/01/24 05:04:34;;;;;;;;;;;;;;;-4.51;94.46;99886.02;1669059;84;20276;-82
2022/01/24 05:07:00;;;;;;;;;;;;;;;-4.55;94.46;99881.72;1666414;85;25024;-82
2022/01/24 05:09:31;;;;;;;;;;;;;;;-4.56;94.46;99883.83;1666307;85;21937;-82
2022/01/24 05:12:03;;;;;;;;;;;;;;;-4.60;94.40;99883.36;1669043;84;25981;-82
2022/01/24 05:25:23;;;;;;;;;;;;;;;-4.57;94.26;99892.32;1667285;85;25974;-82
2022/01/24 05:27:50;;;;;;;;;;;;;;;-4.57;94.26;99894.45;1666888;84;24360;-82
2022/01/24 05:30:16;;;;;;;;;;;;;;;-4.69;94.12;99899.42;1668515;84;20164;-83
2022/01/24 05:32:43;;;;;;;;;;;;;;;-4.83;93.94;99897.92;1679499;85;24996;-83
2022/01/24 05:35:09;;;;;;;;;;;;;;;-4.83;93.88;99894.09;1679516;83;21936;-83
2022/01/24 05:37:35;;;;;;;;;;;;;;;-4.76;93.89;99894.63;1680211;84;25975;-83
2022/01/24 05:40:02;;;;;;;;;;;;;;;-4.92;93.72;99893.97;1682029;83;24539;-83
2022/01/24 05:42:28;;;;;;;;;;;;;;;-5.12;93.40;99893.64;1663304;85;20565;-83
2022/01/24 05:44:58;;;;;;;;;;;;;;;-5.32;93.06;99889.05;1678900;85;25118;-83
2022/01/24 05:47:24;;;;;;;;;;;;;;;-5.52;92.69;99892.14;1680951;83;22676;-83
2022/01/24 05:49:50;;;;;;;;;;;;;;;-5.62;92.42;99895.33;1681047;83;26138;-82
2022/01/24 05:52:16;;;;;;;;;;;;;;;-5.64;92.26;99899.56;1679161;83;24488;-82
2022/01/24 05:54:43;;;;;;;;;;;;;;;-5.63;92.19;99900.02;1680669;85;20244;-82
2022/01/24 05:57:09;;;;;;;;;;;;;;;-5.53;92.24;99897.20;1682912;85;25048;-82
2022/01/24 05:59:36;;;;;;;;;;;;;;;-5.37;92.40;99890.67;1680070;83;22042;-82
2022/01/24 06:02:08;;;;;;;;;;;;;;;-5.21;92.58;99891.36;1679406;83;25990;-82
2022/01/24 06:04:34;;;;;;;;;;;;;;;-5.02;92.79;99897.63;1680292;84;24480;-82
2022/01/24 06:07:00;;;;;;;;;;;;;;;-4.99;92.88;99901.50;1682074;85;20219;-82
2022/01/24 06:09:27;;;;;;;;;;;;;;;-5.16;92.78;99907.19;1682988;84;25014;-82
2022/01/24 06:11:53;;;;;;;;;;;;;;;-5.27;92.64;99912.95;1680490;83;22022;-82
2022/01/24 06:14:19;;;;;;;;;;;;;;;-5.33;92.54;99913.70;1681712;83;25935;-82
2022/01/24 06:16:45;;;;;;;;;;;;;;;-5.27;92.56;99920.19;1665184;84;25075;-82
2022/01/24 06:19:11;;;;;;;;;;;;;;;-5.13;92.71;99913.61;1677240;85;20221;-82
2022/01/24 06:21:37;;;;;;;;;;;;;;;-5.07;92.75;99916.67;1681810;83;25577;-82
2022/01/24 06:24:03;;;;;;;;;;;;;;;-5.06;92.77;99919.26;1680610;85;22028;-82
2022/01/24 06:26:30;;;;;;;;;;;;;;;-4.98;92.85;99921.95;1678012;83;26178;-82
2022/01/24 06:28:56;;;;;;;;;;;;;;;-5.02;92.79;99917.64;1679982;84;25110;-82
2022/01/24 06:31:22;;;;;;;;;;;;;;;-5.26;92.52;99914.67;1675995;84;20274;-82
2022/01/24 06:33:48;;;;;;;;;;;;;;;-5.46;92.21;99909.66;1665841;85;25251;-82
2022/01/24 06:36:15;;;;;;;;;;;;;;;-5.66;91.89;99916.51;1666857;85;22613;-82
2022/01/24 06:38:41;;;;;;;;;;;;;;;-5.79;91.61;99917.13;1666863;85;26230;-82
2022/01/24 06:41:07;;;;;;;;;;;;;;;-5.77;91.52;99915.45;1668518;85;24472;-82
2022/01/24 06:43:33;;;;;;;;;;;;;;;-5.91;91.26;99919.47;1668162;85;20334;-83
2022/01/24 06:46:03;;;;;;;;;;;;;;;-5.90;91.13;99926.70;1665566;85;25012;-83
2022/01/24 06:48:29;;;;;;;;;;;;;;;-5.72;91.24;99927.00;1668065;85;22850;-82
2022/01/24 06:50:56;;;;;;;;;;;;;;;-5.52;91.42;99935.91;1667596;85;26241;-83
2022/01/24 06:53:22;;;;;;;;;;;;;;;-5.38;91.57;99937.00;1669370;85;24649;-83
2022/01/24 06:55:48;;;;;;;;;;;;;;;-5.39;91.58;99938.23;1667809;85;20236;-82
2022/01/24 06:58:14;;;;;;;;;;;;;;;-5.53;91.49;99938.86;1666029;85;25016;-82
2022/01/24 07:00:40;;;;;;;;;;;;;;;-5.65;91.35;99941.19;1669455;85;21954;-82
2022/01/24 07:03:06;;;;;;;;;;;;;;;-5.58;91.40;99949.40;1669286;85;26007;-83
2022/01/24 07:05:32;;;;;;;;;;;;;;;-5.62;91.37;99951.42;1670420;85;24241;-82
2022/01/24 07:08:00;;;;;;;;;;;;;;;-5.60;91.35;99955.28;1668345;85;20727;-83
2022/01/24 07:10:27;;;;;;;;;;;;;;;-5.70;91.28;99949.58;1666984;85;24935;-82
2022/01/24 07:12:54;;;;;;;;;;;;;;;-5.81;91.14;99964.66;1666265;85;22896;-82
2022/01/24 07:15:23;;;;;;;;;;;;;;;-5.85;91.05;99965.85;1664195;85;25948;-82
2022/01/24 07:20:19;;;;;;;;;;;;;;;-5.95;90.90;99968.26;1667961;85;20247;-82
2022/01/24 07:22:45;;;;;;;;;;;;;;;-5.88;90.96;99964.12;1667640;85;25100;-82
2022/01/24 07:25:11;;;;;;;;;;;;;;;-5.92;90.92;99979.77;1648547;85;21816;-83
2022/01/24 07:27:37;;;;;;;;;;;;;;;-6.08;90.73;99983.24;1666137;85;26126;-82
2022/01/24 07:30:03;;;;;;;;;;;;;;;-6.21;90.51;99985.07;1665213;85;25387;-82
2022/01/24 07:32:30;;;;;;;;;;;;;;;-6.29;90.36;99984.06;1670944;85;20523;-82
2022/01/24 07:34:56;;;;;;;;;;;;;;;-6.25;90.30;99980.75;1683793;84;25164;-83
2022/01/24 07:37:22;;;;;;;;;;;;;;;-6.19;90.32;99987.25;1667186;84;22039;-83
2022/01/24 07:39:51;;;;;;;;;;;;;;;-6.05;90.46;99990.53;1689887;83;26045;-83
2022/01/24 07:42:28;;;;;;;;;;;;;;;-5.95;90.60;99994.16;1689340;83;24402;-83
2022/01/24 07:44:45;;;;;;;;;;;;;;;-6.04;90.58;100001.17;1690534;82;20212;-83
2022/01/24 07:47:12;;;;;;;;;;;;;;;-5.98;90.67;99994.08;1690769;84;25026;-83
2022/01/24 07:49:38;;;;;;;;;;;;;;;-5.89;90.80;99994.25;1670815;85;22150;-84
2022/01/24 07:52:04;;;;;;;;;;;;;;;-5.88;90.88;99995.98;1669500;85;26061;-82
2022/01/24 07:54:30;;;;;;;;;;;;;;;-5.93;90.87;100000.13;1670702;85;24478;-82
2022/01/24 07:56:56;;;;;;;;;;;;;;;-5.95;90.82;100008.17;1672531;85;20482;-82
2022/01/24 07:59:22;;;;;;;;;;;;;;;-6.05;90.72;100012.59;1671813;85;24944;-82
2022/01/24 08:01:48;;;;;;;;;;;;;;;-6.16;90.58;100010.23;1669836;85;22052;-82
2022/01/24 08:04:14;;;;;;;;;;;;;;;-6.17;90.53;100008.53;1670282;85;26220;-82
2022/01/24 08:06:40;;;;;;;;;;;;;;;-6.16;90.53;100011.50;1670193;85;25123;-83
2022/01/24 08:09:06;;;;;;;;;;;;;;;-6.11;90.58;99999.75;1668888;85;20232;-82
2022/01/24 08:11:32;;;;;;;;;;;;;;;-5.88;90.82;100003.63;1669613;85;24827;-82
2022/01/24 08:13:58;;;;;;;;;;;;;;;-5.67;91.11;99993.83;1670407;85;22062;-83
2022/01/24 08:16:24;;;;;;;;;;;;;;;-5.46;91.41;99998.50;1668523;85;26029;-83
2022/01/24 08:18:52;;;;;;;;;;;;;;;-5.39;91.62;99993.08;1669355;85;24477;-82
2022/01/24 08:21:19;;;;;;;;;;;;;;;-5.36;91.79;99990.60;1671141;85;20447;-84
2022/01/24 08:23:45;;;;;;;;;;;;;;;-5.30;91.99;99989.03;1670945;85;24965;-84
2022/01/24 08:26:11;;;;;;;;;;;;;;;-5.17;92.20;100000.30;1669295;85;21926;-84
2022/01/24 08:28:37;;;;;;;;;;;;;;;-4.99;92.49;100001.91;1668311;85;26012;-83
2022/01/24 08:31:03;;;;;;;;;;;;;;;-4.78;92.87;99994.59;1669735;85;24477;-83
2022/01/24 08:33:29;;;;;;;;;;;;;;;-4.77;93.00;100001.84;1661280;86;20255;-84
2022/01/24 08:35:56;;;;;;;;;;;;;;;-4.64;93.26;99998.66;1660039;85;25904;-83
2022/01/24 08:38:22;;;;;;;;;;;;;;;-4.68;93.36;100005.40;1656476;85;21979;-83
2022/01/24 08:40:53;;;;;;;;;;;;;;;-4.60;93.51;99999.56;1660915;86;26041;-83
2022/01/24 08:43:35;;;;;;;;;;;;;;;-4.42;93.77;99997.30;1659443;85;24457;-83
2022/01/24 08:45:50;;;;;;;;;;;;;;;-4.33;93.96;99998.28;1660218;85;20248;-83
2022/01/24 08:48:16;;;;;;;;;;;;;;;-4.30;94.06;99993.20;1658750;86;25448;-83
2022/01/24 08:50:43;;;;;;;;;;;;;;;-4.19;94.25;99993.77;1661101;86;22326;-84
2022/01/24 08:53:11;;;;;;;;;;;;;;;-4.20;94.36;99996.77;1661657;86;26206;-83
2022/01/24 08:55:37;;;;;;;;;;;;;;;-4.05;94.59;99995.70;1657113;86;24469;-84
2022/01/24 08:58:05;;;;;;;;;;;;;;;-3.87;94.89;99995.05;1656084;86;20133;-83
2022/01/24 09:00:31;;;;;;;;;;;;;;;-3.86;95.04;99990.39;1657298;86;26465;-83
2022/01/24 09:02:58;;;;;;;;;;;;;;;-3.83;95.21;99982.77;1658830;86;21964;-84
2022/01/24 09:05:27;;;;;;;;;;;;;;;-3.89;95.22;99989.09;1661948;85;26373;-83
2022/01/24 09:07:54;;;;;;;;;;;;;;;-3.90;95.30;99988.22;1659806;85;24497;-83
2022/01/24 09:10:23;;;;;;;;;;;;;;;-3.84;95.43;99988.30;1660443;86;20232;-83
2022/01/24 09:12:48;;;;;;;;;;;;;;;-3.81;95.53;99987.47;1663581;85;24963;-84
2022/01/24 09:15:14;;;;;;;;;;;;;;;-3.73;95.67;99988.44;1658591;85;22140;-83
2022/01/24 09:17:42;;;;;;;;;;;;;;;-3.66;95.84;99986.81;1662363;86;26094;-83
2022/01/24 09:20:09;;;;;;;;;;;;;;;-3.63;96.00;99990.67;1661835;86;24570;-84
2022/01/24 09:22:35;;;;;;;;;;;;;;;-3.57;96.20;99989.05;1659797;86;20320;-84
2022/01/24 09:25:03;;;;;;;;;;;;;;;-3.53;96.35;99996.33;1662171;86;24991;-84
2022/01/24 09:27:30;;;;;;;;;;;;;;;-3.43;96.59;99993.03;1659864;86;22034;-84
2022/01/24 09:29:56;;;;;;;;;;;;;;;-3.35;96.81;99990.56;1659916;85;25968;-85
2022/01/24 09:32:23;;;;;;;;;;;;;;;-3.19;97.10;99995.00;1659949;85;23845;-84
2022/01/24 09:34:49;;;;;;;;;;;;;;;-3.00;97.47;99996.46;1663488;86;20311;-84
2022/01/24 09:37:15;;;;;;;;;;;;;;;-2.81;97.91;99991.09;1659895;86;24986;-84
2022/01/24 09:39:41;;;;;;;;;;;;;;;-2.62;98.32;99992.95;1659945;86;21960;-85
2022/01/24 09:42:07;;;;;;;;;;;;;;;-2.49;98.66;99991.34;1657962;86;26042;-84
2022/01/24 09:44:33;;;;;;;;;;;;;;;-2.39;98.91;99994.40;1658005;86;24720;-84
2022/01/24 09:47:00;;;;;;;;;;;;;;;-2.33;99.08;99994.45;1656639;85;20250;-85
2022/01/24 09:49:26;;;;;;;;;;;;;;;-2.28;99.25;99999.17;1658973;85;25161;-84
2022/01/24 09:51:52;;;;;;;;;;;;;;;-2.27;99.38;99997.05;1659842;86;22030;-84
2022/01/24 09:54:19;;;;;;;;;;;;;;;-2.26;99.42;99995.35;1656863;86;26054;-83
2022/01/24 09:56:45;;;;;;;;;;;;;;;-2.26;99.36;99994.93;1657289;86;24426;-83
2022/01/24 09:59:11;;;;;;;;;;;;;;;-2.30;99.25;99984.66;1661879;85;20245;-83
2022/01/24 10:01:37;;;;;;;;;;;;;;;-2.29;99.17;99994.89;1658105;86;24965;-83
2022/01/24 10:04:05;;;;;;;;;;;;;;;-2.29;99.09;99993.61;1661767;85;22013;-83
2022/01/24 10:06:50;;;;;;;;;;;;;;;-2.26;99.05;99993.65;1660435;86;25917;-83
2022/01/24 10:09:16;;;;;;;;;;;;;;;-2.26;99.07;99988.52;1660726;85;24507;-83
2022/01/24 10:11:43;;;;;;;;;;;;;;;-2.23;99.07;99992.79;1659143;86;20247;-83
2022/01/24 10:16:55;;;;;;;;;;;;;;;-2.16;99.12;99993.27;1657042;86;22656;-83
2022/01/24 10:19:23;;;;;;;;;;;;;;;-2.07;99.23;99992.03;1656300;85;26131;-83
2022/01/24 10:21:50;;;;;;;;;;;;;;;-1.99;99.37;99983.97;1657234;86;23839;-83
2022/01/24 10:24:35;;;;;;;;;;;;;;;-1.94;99.46;99983.56;1664013;86;20311;-83
2022/01/24 10:27:07;;;;;;;;;;;;;;;-1.87;99.56;99979.33;1660555;86;24961;-83
2022/01/24 10:29:33;;;;;;;;;;;;;;;-1.78;99.64;99980.64;1657860;85;22109;-83
2022/01/24 10:32:00;;;;;;;;;;;;;;;-1.70;99.72;99967.02;1661418;84;25984;-82
2022/01/24 10:34:35;;;;;;;;;;;;;;;-1.62;99.81;99965.73;1665299;84;24511;-82
2022/01/24 10:36:56;;;;;;;;;;;;;;;-1.57;99.89;99960.19;1666362;85;20265;-82
2022/01/24 10:40:20;;;;;;;;;;;;;;;-1.51;99.97;99960.21;1668224;84;25017;-82
2022/01/24 10:44:50;;;;;;;;;;;;;;;-1.59;99.87;99954.22;1663417;85;26683;-82
2022/01/24 10:47:19;;;;;;;;;;;;;;;-1.50;99.86;99943.10;1671185;84;24466;-83
2022/01/24 10:49:46;;;;;;;;;;;;;;;-1.40;99.91;99950.83;1668659;85;20216;-83
2022/01/24 10:52:13;;;;;;;;;;;;;;;-1.27;100.00;99941.03;1668800;85;25808;-83
2022/01/24 10:54:39;;;;;;;;;;;;;;;-1.17;100.00;99935.47;1669150;84;22033;-83
2022/01/24 10:57:06;;;;;;;;;;;;;;;-1.02;100.00;99926.91;1674166;85;26031;-83
2022/01/24 10:59:33;;;;;;;;;;;;;;;-0.94;100.00;99920.08;1664805;85;24360;-83
2022/01/24 11:02:04;;;;;;;;;;;;;;;-0.93;100.00;99917.94;1664558;85;20553;-83
2022/01/24 11:04:28;;;;;;;;;;;;;;;-1.02;100.00;99923.05;1669382;84;25031;-83
2022/01/24 11:06:55;;;;;;;;;;;;;;;-1.10;100.00;99922.21;1667984;84;22051;-82
2022/01/24 11:09:29;;;;;;;;;;;;;;;-1.14;99.77;99919.19;1644720;84;25961;-83
2022/01/24 11:11:56;;;;;;;;;;;;;;;-1.11;99.61;99924.34;1667638;84;24446;-83
2022/01/24 11:14:24;;;;;;;;;;;;;;;-1.07;99.45;99922.20;1670736;84;20670;-83
2022/01/24 11:16:52;;;;;;;;;;;;;;;-1.10;99.29;99918.36;1669243;84;26295;-83
2022/01/24 11:19:27;;;;;;;;;;;;;;;-1.03;99.21;99915.77;1668848;85;22097;-83
2022/01/24 11:21:48;;;;;;;;;;;;;;;-0.99;99.14;99905.95;1664070;84;26008;-83
2022/01/24 11:24:19;;;;;;;;;;;;;;;-0.94;99.11;99908.09;1669602;84;25231;-83
2022/01/24 11:26:45;;;;;;;;;;;;;;;-0.90;99.06;99911.50;1667086;85;20578;-83
2022/01/24 11:29:11;;;;;;;;;;;;;;;-0.95;98.89;99901.23;1671845;84;25012;-83
2022/01/24 11:31:42;;;;;;;;;;;;;;;-0.97;98.69;99900.78;1670016;84;21917;-83
2022/01/24 11:34:15;;;;;;;;;;;;;;;-1.01;98.46;99899.08;1670353;84;26712;-83
2022/01/24 11:36:42;;;;;;;;;;;;;;;-1.03;98.25;99900.36;1668521;84;24644;-81
2022/01/24 11:39:09;;;;;;;;;;;;;;;-1.01;98.09;99887.52;1668333;85;20515;-83
2022/01/24 11:41:38;;;;;;;;;;;;;;;-1.04;97.93;99889.68;1670874;85;25751;-83
2022/01/24 11:44:10;;;;;;;;;;;;;;;-1.05;97.76;99890.53;1666597;85;22107;-83
2022/01/24 11:46:43;;;;;;;;;;;;;;;-1.08;97.61;99890.52;1665646;85;26013;-83
2022/01/24 11:49:07;;;;;;;;;;;;;;;-1.12;97.43;99890.52;1675939;84;24369;-83
2022/01/24 11:51:34;;;;;;;;;;;;;;;-1.17;97.27;99876.39;1664788;85;20257;-83
2022/01/24 11:54:01;;;;;;;;;;;;;;;-1.15;97.16;99873.41;1654615;85;25752;-83
2022/01/24 11:56:31;;;;;;;;;;;;;;;-1.10;97.12;99869.55;1667977;85;22193;-83
2022/01/24 11:59:15;;;;;;;;;;;;;;;-1.06;97.11;99862.27;1668305;84;26870;-83
2022/01/24 12:01:41;;;;;;;;;;;;;;;-1.00;97.13;99860.98;1670097;84;25300;-82
2022/01/24 12:04:07;;;;;;;;;;;;;;;-0.95;97.13;99864.41;1664221;85;20294;-83
2022/01/24 12:06:50;;;;;;;;;;;;;;;-0.88;97.18;99863.13;1667379;85;25050;-83
2022/01/24 12:09:18;;;;;;;;;;;;;;;-0.82;97.22;99866.54;1605131;89;21999;-83
2022/01/24 12:11:46;;;;;;;;;;;;;;;-0.63;97.40;99856.64;1645125;85;26857;-83
2022/01/24 12:14:19;;;;;;;;;;;;;;;-0.47;97.60;99857.88;1666258;85;24428;-83
2022/01/24 12:16:42;;;;;;;;;;;;;;;-0.36;97.75;99851.42;1661026;85;20227;-83
2022/01/24 12:19:10;;;;;;;;;;;;;;;-0.13;98.03;99851.34;1666590;85;25909;-83
2022/01/24 12:21:37;;;;;;;;;;;;;;;0.13;98.32;99860.22;1663699;85;23418;-83
2022/01/24 12:24:05;;;;;;;;;;;;;;;0.20;98.43;99850.31;1669166;85;26194;-83
2022/01/24 12:26:36;;;;;;;;;;;;;;;0.25;98.43;99852.44;1665744;85;25429;-83
2022/01/24 12:29:10;;;;;;;;;;;;;;;0.43;98.55;99861.34;1669174;85;20561;-83
2022/01/24 12:31:37;;;;;;;;;;;;;;;0.53;98.60;99860.41;1665624;84;25054;-83
2022/01/24 12:34:11;;;;;;;;;;;;;;;0.53;98.54;99858.27;1663431;84;22063;-83
2022/01/24 12:36:39;;;;;;;;;;;;;;;0.36;98.23;99863.09;1660600;84;26126;-83
2022/01/24 12:39:13;;;;;;;;;;;;;;;0.45;98.08;99857.45;1658778;84;24471;-83
2022/01/24 12:41:44;;;;;;;;;;;;;;;0.61;98.06;99853.47;1665785;84;20275;-83
2022/01/24 12:46:16;;;;;;;;;;;;;;;0.62;97.95;99853.04;1666506;84;24952;-83
2022/01/24 12:46:36;;;;;;;;;;;;;;;0.62;97.81;99851.75;1654750;83;21366;-83
2022/01/24 12:49:04;;;;;;;;;;;;;;;0.75;97.81;99846.52;1657212;85;26135;-83
2022/01/24 12:51:31;;;;;;;;;;;;;;;0.83;97.74;99856.31;1663900;85;24455;-83
2022/01/24 12:53:58;;;;;;;;;;;;;;;0.79;97.57;99867.52;1657656;84;20201;-83
2022/01/24 12:56:25;;;;;;;;;;;;;;;0.81;97.41;99859.35;1676774;84;25080;-83
2022/01/24 12:58:51;;;;;;;;;;;;;;;0.86;97.30;99865.75;1684028;82;21949;-83
2022/01/24 13:01:25;;;;;;;;;;;;;;;0.97;97.25;99862.66;1664746;85;25935;-83
2022/01/24 13:03:55;;;;;;;;;;;;;;;1.00;97.12;99861.33;1676853;83;25154;-83
2022/01/24 13:06:21;;;;;;;;;;;;;;;1.11;97.09;99863.37;1681799;83;20226;-83
2022/01/24 13:08:51;;;;;;;;;;;;;;;1.19;97.06;99859.45;1662484;85;24945;-82
2022/01/24 13:11:17;;;;;;;;;;;;;;;1.20;96.91;99857.30;1665635;85;22206;-83
2022/01/24 13:14:02;;;;;;;;;;;;;;;1.17;96.71;99863.33;1665560;85;26547;-84
2022/01/24 13:22:35;;;;;;;;;;;;;;;1.28;96.30;99857.20;1661668;85;25031;-84
2022/01/24 13:25:06;;;;;;;;;;;;;;;1.26;96.12;99850.34;1674763;83;22019;-83
2022/01/24 13:27:37;;;;;;;;;;;;;;;1.30;95.97;99851.61;1675175;83;26051;-83
2022/01/24 13:30:05;;;;;;;;;;;;;;;1.33;95.83;99861.45;1677096;83;24444;-84
2022/01/24 13:32:42;;;;;;;;;;;;;;;1.30;95.60;99847.74;1657626;84;20560;-85
2022/01/24 13:35:12;;;;;;;;;;;;;;;1.20;95.35;99855.55;1677836;85;24994;-83
2022/01/24 13:37:39;;;;;;;;;;;;;;;1.05;94.97;99867.30;1649260;85;22084;-84
2022/01/24 13:40:11;;;;;;;;;;;;;;;0.94;94.62;99853.64;1678544;84;25957;-84
2022/01/24 13:42:37;;;;;;;;;;;;;;;0.94;94.36;99858.80;1676060;84;24572;-83
2022/01/24 13:45:05;;;;;;;;;;;;;;;0.93;94.14;99862.23;1663106;85;20241;-84
2022/01/24 13:47:31;;;;;;;;;;;;;;;0.84;93.85;99853.30;1665010;85;25028;-84
2022/01/24 13:49:57;;;;;;;;;;;;;;;0.86;93.69;99859.31;1660754;85;22035;-84
2022/01/24 13:52:29;;;;;;;;;;;;;;;0.97;93.64;99851.48;1660150;86;26051;-84
2022/01/24 13:54:57;;;;;;;;;;;;;;;0.98;93.54;99848.05;1662126;85;24413;-84
2022/01/24 13:57:24;;;;;;;;;;;;;;;0.99;93.46;99848.44;1665836;85;20608;-84
2022/01/24 13:59:51;;;;;;;;;;;;;;;1.08;93.48;99838.93;1659115;86;25045;-84
2022/01/24 14:02:29;;;;;;;;;;;;;;;1.07;93.42;99839.80;1662396;86;22067;-84
2022/01/24 14:04:52;;;;;;;;;;;;;;;1.10;93.36;99832.02;1658713;85;26088;-84
2022/01/24 14:07:26;;;;;;;;;;;;;;;1.31;93.47;99839.14;1662021;86;24432;-84
2022/01/24 14:10:03;;;;;;;;;;;;;;;1.34;93.45;99833.51;1658859;86;20625;-84
2022/01/24 14:12:40;;;;;;;;;;;;;;;1.42;93.48;99828.28;1664890;86;25206;-84
2022/01/24 14:15:11;;;;;;;;;;;;;;;1.43;93.36;99829.97;1659520;86;21606;-84
2022/01/24 14:17:48;;;;;;;;;;;;;;;1.45;93.20;99820.50;1662409;85;26087;-85
2022/01/24 14:20:08;;;;;;;;;;;;;;;1.45;93.03;99824.36;1658112;86;24829;-84
2022/01/24 14:22:47;;;;;;;;;;;;;;;1.43;92.85;99832.55;1664075;85;20248;-84